Time;durP1;ratioP1;P1;durP2;ratioP2;P2;SDS_P1;SDS_P2;PMS_P1;PMS_P2;Temp;Humidity;BMP_temperature;BMP_pressure;BME280_temperature;BME280_humidity;BME280_pressure;Samples;Min_cycle;Max_cycle;Signal;HPM_P1;HPM_P2
2021/03/27 00:00:10;;;;;;;2.47;0.47;;;5.90;99.90;;;;;;5032943;28;20048;-84
2021/03/27 00:02:40;;;;;;;3.58;1.48;;;5.90;99.90;;;;;;5033066;28;20549;-84
2021/03/27 00:05:24;;;;;;;4.40;0.50;;;5.90;99.90;;;;;;5033007;28;20057;-84
2021/03/27 00:08:18;;;;;;;3.22;0.60;;;5.90;99.90;;;;;;5031766;28;20053;-83
2021/03/27 00:11:10;;;;;;;2.60;0.70;;;5.90;99.90;;;;;;5031670;28;20061;-84
2021/03/27 00:13:51;;;;;;;1.80;0.77;;;5.90;99.90;;;;;;5032909;28;20473;-84
2021/03/27 00:16:22;;;;;;;2.13;1.10;;;5.90;99.90;;;;;;5032815;28;20026;-84
2021/03/27 00:18:53;;;;;;;2.22;1.27;;;5.90;99.90;;;;;;5032656;28;20485;-84
2021/03/27 00:21:43;;;;;;;2.28;1.88;;;5.90;99.90;;;;;;5031618;28;20030;-85
2021/03/27 00:24:41;;;;;;;2.90;1.45;;;6.00;99.90;;;;;;5031601;28;20022;-84
2021/03/27 00:27:13;;;;;;;3.45;1.52;;;6.00;99.90;;;;;;5025289;28;20560;-84
2021/03/27 00:29:45;;;;;;;3.80;1.45;;;5.90;99.90;;;;;;5031316;28;20084;-84
2021/03/27 00:32:16;;;;;;;2.75;1.80;;;5.90;99.90;;;;;;5034502;28;20071;-85
2021/03/27 00:34:47;;;;;;;3.42;2.90;;;5.90;99.90;;;;;;5035462;28;20033;-84
2021/03/27 00:37:18;;;;;;;7.72;3.13;;;5.90;99.90;;;;;;5035557;28;20021;-85
2021/03/27 00:40:06;;;;;;;4.93;2.83;;;5.90;99.90;;;;;;5036580;28;20061;-85
2021/03/27 00:42:37;;;;;;;7.28;3.85;;;5.90;99.90;;;;;;5035490;28;20056;-86
2021/03/27 00:45:13;;;;;;;7.95;4.60;;;5.90;99.90;;;;;;5035344;28;20021;-85
2021/03/27 00:47:42;;;;;;;6.53;4.90;;;5.90;99.90;;;;;;5035378;28;20021;-85
2021/03/27 00:50:39;;;;;;;6.93;5.53;;;5.90;99.90;;;;;;5035339;28;20510;-85
2021/03/27 00:53:31;;;;;;;9.25;6.35;;;5.90;99.90;;;;;;5034869;28;20116;-85
2021/03/27 00:56:11;;;;;;;9.32;5.70;;;5.90;99.90;;;;;;5036478;28;20030;-85
2021/03/27 00:58:40;;;;;;;;;;;5.80;99.90;;;;;;5035230;28;20060;-84
2021/03/27 01:01:09;;;;;;;9.82;5.45;;;5.80;99.90;;;;;;5034983;28;19947;-83
2021/03/27 01:03:40;;;;;;;14.68;6.38;;;5.80;99.90;;;;;;5035085;28;20065;-83
2021/03/27 01:06:09;;;;;;;11.18;6.47;;;5.90;99.90;;;;;;5034882;28;20033;-83
2021/03/27 01:08:37;;;;;;;10.00;5.33;;;5.90;99.90;;;;;;5034824;28;20399;-83
2021/03/27 01:11:07;;;;;;;11.02;6.20;;;5.80;99.90;;;;;;5035957;28;20469;-83
2021/03/27 01:13:42;;;;;;;12.75;7.03;;;5.90;99.90;;;;;;5034715;28;20036;-84
2021/03/27 01:16:14;;;;;;;8.77;6.13;;;5.90;99.90;;;;;;5034575;28;20095;-84
2021/03/27 01:18:43;;;;;;;10.90;6.72;;;5.80;99.90;;;;;;5034625;28;20029;-84
2021/03/27 01:21:13;;;;;;;13.68;7.40;;;5.80;99.90;;;;;;5034461;28;20026;-84
2021/03/27 01:23:39;;;;;;;12.60;8.90;;;5.90;99.90;;;;;;5034614;28;20022;-84
2021/03/27 01:26:24;;;;;;;17.73;9.52;;;5.80;99.90;;;;;;5035858;28;20021;-84
2021/03/27 01:29:01;;;;;;;15.07;9.95;;;5.90;99.90;;;;;;5034346;28;20032;-83
2021/03/27 01:32:01;;;;;;;19.42;11.52;;;5.80;99.90;;;;;;5034423;28;20036;-84
2021/03/27 01:34:38;;;;;;;18.33;11.43;;;5.80;99.90;;;;;;5035586;28;20049;-83
2021/03/27 01:37:26;;;;;;;19.90;14.02;;;5.80;99.90;;;;;;5035656;28;20668;-83
2021/03/27 01:40:11;;;;;;;20.52;12.77;;;5.80;99.90;;;;;;5033832;28;20049;-83
2021/03/27 01:43:02;;;;;;;15.48;12.30;;;5.80;99.90;;;;;;5035098;28;20104;-84
2021/03/27 01:45:57;;;;;;;19.98;12.73;;;5.80;99.90;;;;;;5028277;28;20496;-83
2021/03/27 01:48:51;;;;;;;26.77;14.40;;;5.90;99.90;;;;;;5034168;28;20033;-83
2021/03/27 01:51:36;;;;;;;20.92;14.07;;;5.90;99.90;;;;;;5033776;28;20037;-83
2021/03/27 01:54:09;;;;;;;18.85;12.00;;;5.90;99.90;;;;;;5035350;28;20102;-83
2021/03/27 01:57:06;;;;;;;19.65;12.75;;;5.90;99.90;;;;;;5035218;28;20389;-83
2021/03/27 01:59:39;;;;;;;20.40;12.55;;;6.00;99.90;;;;;;5033739;28;20068;-83
2021/03/27 02:02:09;;;;;;;19.75;11.30;;;6.00;99.90;;;;;;5035117;28;20021;-84
2021/03/27 02:04:50;;;;;;;21.27;13.40;;;6.00;99.90;;;;;;5035144;28;20021;-83
2021/03/27 02:07:22;;;;;;;18.50;12.05;;;6.00;99.90;;;;;;5033913;28;20026;-84
2021/03/27 02:10:12;;;;;;;18.38;12.18;;;6.00;99.90;;;;;;5033816;28;20497;-84
2021/03/27 02:12:50;;;;;;;19.70;10.73;;;6.00;99.90;;;;;;5034955;28;20026;-83
2021/03/27 02:15:28;;;;;;;15.05;10.55;;;6.00;99.90;;;;;;5034692;28;20432;-83
2021/03/27 02:18:00;;;;;;;14.80;10.55;;;6.00;99.90;;;;;;5033639;28;20029;-84
2021/03/27 02:20:59;;;;;;;18.65;10.65;;;6.00;99.90;;;;;;5034633;28;20385;-83
2021/03/27 02:23:47;;;;;;;20.08;9.77;;;6.00;99.90;;;;;;5033510;28;20100;-83
2021/03/27 02:26:28;;;;;;;13.70;9.80;;;5.90;99.90;;;;;;5033389;28;20061;-84
2021/03/27 02:29:31;;;;;;;14.40;9.80;;;5.90;99.90;;;;;;5033410;28;20035;-83
2021/03/27 02:32:12;;;;;;;16.63;8.73;;;5.90;99.90;;;;;;5034315;28;20109;-84
2021/03/27 02:34:43;;;;;;;18.05;9.07;;;5.80;99.90;;;;;;5034579;28;20135;-84
2021/03/27 02:37:28;;;;;;;17.13;9.10;;;5.70;99.90;;;;;;5034596;28;20056;-84
2021/03/27 02:40:01;;;;;;;15.07;8.15;;;5.70;99.90;;;;;;5032835;28;20049;-83
2021/03/27 02:43:02;;;;;;;17.00;8.48;;;5.70;99.90;;;;;;5033024;28;20021;-84
2021/03/27 02:45:55;;;;;;;12.00;8.25;;;5.60;99.90;;;;;;5033060;28;20539;-83
2021/03/27 02:48:53;;;;;;;14.90;9.43;;;5.60;99.90;;;;;;5033083;28;20113;-83
2021/03/27 02:51:52;;;;;;;18.58;9.90;;;5.60;99.90;;;;;;5032801;28;20033;-84
2021/03/27 02:54:35;;;;;;;18.10;9.05;;;5.60;99.90;;;;;;5032377;28;20116;-84
2021/03/27 02:57:10;;;;;;;14.57;9.57;;;5.60;99.90;;;;;;5034163;28;20037;-84
2021/03/27 03:00:03;;;;;;;19.25;10.02;;;5.60;99.90;;;;;;5034054;28;20095;-83
2021/03/27 03:02:55;;;;;;;17.38;9.93;;;5.60;99.90;;;;;;5033825;28;20457;-84
2021/03/27 03:05:37;;;;;;;21.40;10.75;;;5.50;99.90;;;;;;5033905;28;20021;-83
2021/03/27 03:08:23;;;;;;;20.85;10.50;;;5.60;99.90;;;;;;5032732;28;20048;-84
2021/03/27 03:11:15;;;;;;;19.98;9.27;;;5.60;99.90;;;;;;5033768;28;20037;-84
2021/03/27 03:13:50;;;;;;;20.08;8.88;;;5.70;99.90;;;;;;5032520;28;20439;-84
2021/03/27 03:16:33;;;;;;;20.58;10.95;;;5.70;99.90;;;;;;5033513;28;20079;-84
2021/03/27 03:19:20;;;;;;;24.08;10.23;;;5.80;99.90;;;;;;5032443;28;20041;-84
2021/03/27 03:22:06;;;;;;;24.33;10.95;;;5.80;99.90;;;;;;5033305;28;20492;-84
2021/03/27 03:24:45;;;;;;;17.75;10.48;;;5.80;99.90;;;;;;5033652;28;20437;-83
2021/03/27 03:27:17;;;;;;;18.27;11.57;;;5.80;99.90;;;;;;5033661;28;20021;-84
2021/03/27 03:30:27;;;;;;;22.13;10.77;;;5.80;99.90;;;;;;5032251;28;20064;-83
2021/03/27 03:33:13;;;;;;;22.50;10.90;;;5.80;99.90;;;;;;5014088;28;20034;-84
2021/03/27 03:35:45;;;;;;;19.63;11.38;;;5.80;99.90;;;;;;5033318;28;20030;-83
2021/03/27 03:38:39;;;;;;;21.27;11.35;;;5.80;99.90;;;;;;5032329;28;20393;-83
2021/03/27 03:41:04;;;;;;;21.92;10.85;;;5.90;99.90;;;;;;5013613;28;20117;-83
2021/03/27 03:44:13;;;;;;;21.52;11.52;;;5.80;99.90;;;;;;5012343;28;20026;-84
2021/03/27 03:47:17;;;;;;;20.15;10.68;;;5.80;99.90;;;;;;4975149;28;20112;-82
2021/03/27 03:49:48;;;;;;;21.90;10.27;;;5.80;99.90;;;;;;4981462;28;20121;-84
2021/03/27 03:52:23;;;;;;;24.05;10.90;;;5.80;99.90;;;;;;5003848;28;20034;-83
2021/03/27 03:55:19;;;;;;;17.83;9.75;;;5.70;99.90;;;;;;5013528;28;20029;-84
2021/03/27 03:58:00;;;;;;;20.05;9.75;;;5.70;99.90;;;;;;5013452;28;20378;-84
2021/03/27 04:00:30;;;;;;;20.92;9.75;;;5.70;99.90;;;;;;5013419;28;20029;-84
2021/03/27 04:03:17;;;;;;;20.75;8.80;;;5.70;99.90;;;;;;5011903;28;20034;-83
2021/03/27 04:06:01;;;;;;;18.92;10.10;;;5.70;99.90;;;;;;5013209;28;20026;-84
2021/03/27 04:08:50;;;;;;;19.45;9.70;;;5.70;99.90;;;;;;5012166;28;20025;-84
2021/03/27 04:11:40;;;;;;;16.02;8.27;;;5.70;99.90;;;;;;5011935;28;20037;-84
2021/03/27 04:14:30;;;;;;;17.08;7.97;;;5.70;99.90;;;;;;5013417;28;20040;-84
2021/03/27 04:17:05;;;;;;;18.95;7.93;;;5.80;99.90;;;;;;5011836;28;20040;-84
2021/03/27 04:19:37;;;;;;;17.50;8.20;;;5.80;99.90;;;;;;5013057;28;20033;-84
2021/03/27 04:22:11;;;;;;;19.65;7.63;;;5.80;99.90;;;;;;5013147;28;20472;-84
2021/03/27 04:25:05;;;;;;;14.15;7.43;;;5.90;99.90;;;;;;5011958;28;20120;-84
2021/03/27 04:27:35;;;;;;;13.93;6.60;;;5.90;99.90;;;;;;5011636;28;20057;-84
2021/03/27 04:30:23;;;;;;;17.02;6.00;;;5.90;99.90;;;;;;5011975;28;20026;-84
2021/03/27 04:33:04;;;;;;;15.27;6.50;;;6.00;99.90;;;;;;5011625;28;20029;-84
2021/03/27 04:36:01;;;;;;;13.80;6.38;;;6.00;99.90;;;;;;5011960;28;20029;-84
2021/03/27 04:38:34;;;;;;;15.52;6.72;;;6.00;99.90;;;;;;5013362;28;20061;-84
2021/03/27 04:41:27;;;;;;;16.08;5.53;;;6.00;99.90;;;;;;5031443;28;20028;-84
2021/03/27 04:44:40;;;;;;;17.80;5.55;;;6.00;99.90;;;;;;5032815;28;20065;-82
2021/03/27 04:47:22;;;;;;;17.05;6.05;;;6.00;99.90;;;;;;5029029;28;20071;-84
2021/03/27 04:50:09;;;;;;;16.60;5.47;;;6.10;99.90;;;;;;5031380;28;20472;-84
2021/03/27 04:52:51;;;;;;;12.93;5.07;;;6.10;99.90;;;;;;5032541;28;20130;-84
2021/03/27 04:55:38;;;;;;;22.25;5.53;;;6.10;99.90;;;;;;5031412;28;20543;-84
2021/03/27 04:58:11;;;;;;;16.58;4.55;;;6.10;99.90;;;;;;5032565;28;20033;-84
2021/03/27 05:01:01;;;;;;;13.77;4.32;;;6.20;99.90;;;;;;5032419;28;20028;-83
2021/03/27 05:03:39;;;;;;;16.15;3.90;;;6.20;99.90;;;;;;5031933;28;20025;-84
2021/03/27 05:06:21;;;;;;;11.23;3.05;;;6.20;99.90;;;;;;5030091;28;20021;-84
2021/03/27 05:09:03;;;;;;;15.85;4.05;;;6.10;99.90;;;;;;5031316;28;20033;-84
2021/03/27 05:11:47;;;;;;;9.75;2.70;;;6.10;99.90;;;;;;5031028;28;20022;-84
2021/03/27 05:14:25;;;;;;;15.65;3.45;;;6.10;99.90;;;;;;5032548;28;20100;-84
2021/03/27 05:17:31;;;;;;;18.77;3.30;;;6.00;99.90;;;;;;5032795;28;20026;-84
2021/03/27 05:20:04;;;;;;;14.13;2.65;;;6.00;99.90;;;;;;5034587;28;20094;-84
2021/03/27 05:22:42;;;;;;;19.33;3.08;;;5.90;99.90;;;;;;5035822;28;20018;-84
2021/03/27 05:25:45;;;;;;;16.70;4.13;;;6.00;99.90;;;;;;5034558;28;20026;-84
2021/03/27 05:28:26;;;;;;;13.82;3.17;;;6.10;99.90;;;;;;5029960;28;20033;-84
2021/03/27 05:31:20;;;;;;;15.43;3.40;;;6.10;99.90;;;;;;5034471;28;20033;-83
2021/03/27 05:34:02;;;;;;;16.83;2.65;;;6.10;99.90;;;;;;5034428;28;20030;-84
2021/03/27 05:36:49;;;;;;;11.05;2.90;;;6.20;99.90;;;;;;5034369;28;20481;-84
2021/03/27 05:39:23;;;;;;;12.70;3.03;;;6.20;99.90;;;;;;5034102;28;20084;-84
2021/03/27 05:42:26;;;;;;;14.30;3.20;;;6.20;99.90;;;;;;5035521;28;20025;-84
2021/03/27 05:45:17;;;;;;;11.25;2.67;;;6.20;99.90;;;;;;5029803;28;20037;-83
2021/03/27 05:48:14;;;;;;;26.88;4.15;;;6.20;99.90;;;;;;5013376;28;20113;-84
2021/03/27 05:51:18;;;;;;;9.77;3.22;;;6.20;99.90;;;;;;5015303;28;20045;-84
2021/03/27 05:53:46;;;;;;;13.40;2.83;;;6.20;99.90;;;;;;5013865;28;20385;-84
2021/03/27 05:56:48;;;;;;;11.05;1.55;;;6.00;99.90;;;;;;5014265;28;20029;-84
2021/03/27 05:59:43;;;;;;;12.38;2.45;;;5.70;99.90;;;;;;5014208;28;20084;-83
2021/03/27 06:02:33;;;;;;;12.02;1.38;;;5.10;99.90;;;;;;5015286;28;20026;-83
2021/03/27 06:05:20;;;;;;;5.47;1.00;;;4.30;99.90;;;;;;5015361;28;20498;-85
2021/03/27 06:08:07;;;;;;;17.02;2.45;;;3.70;99.90;;;;;;5015507;28;20053;-86
2021/03/27 06:10:38;;;;;;;9.43;2.42;;;3.60;99.90;;;;;;5015340;28;20385;-85
2021/03/27 06:13:31;;;;;;;14.75;2.63;;;3.60;99.90;;;;;;5015069;28;20393;-84
2021/03/27 06:16:27;;;;;;;9.70;1.98;;;3.70;99.90;;;;;;5025361;28;20546;-84
2021/03/27 06:19:19;;;;;;;11.88;2.00;;;3.80;99.90;;;;;;5038366;28;20541;-83
2021/03/27 06:22:06;;;;;;;13.32;2.63;;;3.90;99.90;;;;;;5033052;28;20064;-82
2021/03/27 06:25:09;;;;;;;8.02;2.10;;;3.90;99.90;;;;;;5034453;28;20373;-83
2021/03/27 06:28:16;;;;;;;7.30;2.75;;;4.00;99.90;;;;;;5033430;28;20463;-84
2021/03/27 06:31:03;;;;;;;9.38;2.35;;;4.00;99.90;;;;;;5033127;28;20026;-84
2021/03/27 06:34:06;;;;;;;5.65;2.10;;;4.00;99.90;;;;;;5033235;28;20464;-83
2021/03/27 06:37:11;;;;;;;12.15;2.47;;;4.10;99.90;;;;;;5033157;28;20033;-84
2021/03/27 06:39:59;;;;;;;8.63;1.80;;;4.20;99.90;;;;;;5034409;28;20416;-86
2021/03/27 06:43:00;;;;;;;13.00;2.35;;;4.20;99.90;;;;;;5033077;28;20021;-85
2021/03/27 06:45:34;;;;;;;;;;;4.30;99.90;;;;;;5033644;28;20017;-86
2021/03/27 06:48:18;;;;;;;8.15;1.60;;;4.30;99.90;;;;;;5033009;28;19905;-85
2021/03/27 06:51:22;;;;;;;16.08;1.90;;;4.40;99.90;;;;;;5026678;28;20118;-85
2021/03/27 06:53:54;;;;;;;13.20;1.35;;;4.40;99.90;;;;;;5030749;28;20113;-85
2021/03/27 06:56:46;;;;;;;11.68;1.40;;;4.40;99.90;;;;;;5028528;28;20028;-85
2021/03/27 06:59:37;;;;;;;17.10;1.58;;;4.40;99.90;;;;;;5026333;28;20477;-86
2021/03/27 07:02:11;;;;;;;;;;;4.40;99.90;;;;;;5047086;28;20017;-86
2021/03/27 07:04:52;;;;;;;9.20;1.60;;;4.40;99.90;;;;;;5032256;28;20322;-85
2021/03/27 07:07:29;;;;;;;8.00;1.50;;;4.40;99.90;;;;;;5033520;28;20021;-86
2021/03/27 07:10:07;;;;;;;12.48;3.25;;;4.50;99.90;;;;;;5032430;28;20022;-85
2021/03/27 07:13:03;;;;;;;16.48;3.45;;;4.50;99.90;;;;;;5032674;28;20492;-85
2021/03/27 07:15:45;;;;;;;12.23;2.53;;;4.60;99.90;;;;;;5024867;28;20036;-86
2021/03/27 07:18:32;;;;;;;14.45;1.63;;;4.60;99.90;;;;;;5020303;28;20481;-86
2021/03/27 07:21:08;;;;;;;7.97;1.33;;;4.60;99.90;;;;;;5031875;28;20048;-86
2021/03/27 07:24:02;;;;;;;12.40;1.38;;;4.70;99.90;;;;;;5033277;28;20017;-86
2021/03/27 07:26:53;;;;;;;11.15;1.60;;;4.80;99.90;;;;;;5031649;28;20021;-85
2021/03/27 07:29:43;;;;;;;7.22;1.42;;;4.90;99.90;;;;;;5026365;28;20036;-85
2021/03/27 07:32:27;;;;;;;;;;;5.20;99.90;;;;;;5047373;28;20033;-85
2021/03/27 07:35:30;;;;;;;6.28;1.73;;;5.20;99.90;;;;;;5041023;28;19916;-86
2021/03/27 07:38:33;;;;;;;12.68;2.58;;;5.30;99.90;;;;;;5031217;28;20076;-86
2021/03/27 07:41:02;;;;;;;19.02;3.45;;;5.40;99.90;;;;;;5032577;28;20029;-85
2021/03/27 07:44:05;;;;;;;11.38;1.80;;;5.60;99.90;;;;;;5031778;28;20087;-86
2021/03/27 07:47:08;;;;;;;13.40;1.70;;;5.60;99.90;;;;;;5031977;28;20018;-86
2021/03/27 07:50:04;;;;;;;10.52;2.15;;;5.60;99.90;;;;;;5031166;28;20041;-86
2021/03/27 07:52:35;;;;;;;13.05;2.30;;;5.60;99.90;;;;;;5047272;28;20021;-86
2021/03/27 07:55:12;;;;;;;9.45;1.95;;;5.50;99.90;;;;;;5038107;28;20032;-86
2021/03/27 07:58:11;;;;;;;12.63;3.63;;;5.50;99.90;;;;;;5032566;28;20021;-86
2021/03/27 08:00:50;;;;;;;19.67;2.95;;;5.50;99.90;;;;;;5032847;28;20465;-87
2021/03/27 08:03:45;;;;;;;14.65;2.35;;;5.40;99.90;;;;;;5031874;28;20481;-87
2021/03/27 08:06:16;;;;;;;14.50;2.72;;;5.40;99.90;;;;;;5030892;28;20021;-87
2021/03/27 08:09:12;;;;;;;6.60;1.60;;;5.40;99.90;;;;;;5032183;28;20017;-87
2021/03/27 08:11:59;;;;;;;9.23;1.00;;;5.20;99.90;;;;;;5023515;28;20061;-87
2021/03/27 08:14:52;;;;;;;7.30;1.40;;;4.70;99.90;;;;;;5031969;28;20104;-85
2021/03/27 08:17:28;;;;;;;9.77;1.15;;;4.40;99.90;;;;;;5031328;28;20270;-85
2021/03/27 08:20:17;;;;;;;11.45;1.60;;;4.30;99.90;;;;;;5032660;28;20469;-86
2021/03/27 08:23:20;;;;;;;10.60;1.20;;;4.40;99.90;;;;;;5030181;28;20025;-86
2021/03/27 08:26:07;;;;;;;8.93;1.60;;;4.40;99.90;;;;;;5018913;28;20022;-86
2021/03/27 08:29:28;;;;;;;8.90;1.45;;;4.40;99.90;;;;;;5030409;28;20013;-86
2021/03/27 08:32:23;;;;;;;5.07;1.08;;;4.30;99.90;;;;;;5041501;28;20026;-85
2021/03/27 08:35:03;;;;;;;10.13;1.90;;;4.30;99.90;;;;;;4955820;28;20053;-86
2021/03/27 08:37:44;;;;;;;6.30;1.17;;;4.20;99.90;;;;;;5023559;28;20059;-85
2021/03/27 08:40:28;;;;;;;11.52;1.92;;;4.10;99.90;;;;;;5030883;28;20041;-86
2021/03/27 08:43:12;;;;;;;5.88;0.70;;;4.10;99.90;;;;;;5030897;28;20025;-83
2021/03/27 08:46:24;;;;;;;5.60;1.23;;;4.10;99.90;;;;;;5018901;28;20017;-84
2021/03/27 08:49:11;;;;;;;8.90;1.45;;;4.20;99.90;;;;;;5046788;28;20112;-85
2021/03/27 08:52:01;;;;;;;9.07;1.52;;;4.40;99.90;;;;;;5047394;28;20025;-85
2021/03/27 08:54:56;;;;;;;7.32;1.30;;;4.60;99.90;;;;;;5030340;28;20032;-85
2021/03/27 08:57:40;;;;;;;7.93;2.38;;;4.90;99.90;;;;;;5051256;28;20117;-83
2021/03/27 09:00:43;;;;;;;10.07;2.08;;;5.30;99.90;;;;;;5051568;28;20108;-83
2021/03/27 09:03:26;;;;;;;9.20;1.83;;;5.50;99.90;;;;;;5050643;28;20124;-82
2021/03/27 09:06:10;;;;;;;13.77;2.10;;;5.60;99.90;;;;;;5034931;28;20057;-83
2021/03/27 09:09:14;;;;;;;9.85;2.08;;;5.50;99.90;;;;;;5051562;28;20029;-82
2021/03/27 09:12:24;;;;;;;14.25;2.30;;;5.30;99.90;;;;;;5051447;28;20492;-82
2021/03/27 09:15:19;;;;;;;12.60;2.25;;;5.20;99.90;;;;;;4982918;28;20030;-83
2021/03/27 09:17:55;;;;;;;18.20;2.22;;;5.30;99.90;;;;;;5034837;28;20048;-83
2021/03/27 09:20:21;;;;;;;18.50;3.50;;;5.40;99.90;;;;;;5034593;28;20492;-83
2021/03/27 09:23:09;;;;;;;11.57;1.83;;;6.60;99.90;;;;;;5034680;28;20029;-82
2021/03/27 09:26:12;;;;;;;14.57;2.35;;;8.20;99.90;;;;;;5035643;28;20556;-82
2021/03/27 09:28:59;;;;;;;13.43;2.13;;;9.50;98.30;;;;;;5035758;28;20481;-83
2021/03/27 09:31:43;;;;;;;14.45;2.13;;;10.00;94.10;;;;;;5033990;28;20112;-83
2021/03/27 09:34:55;;;;;;;13.20;1.90;;;10.40;92.50;;;;;;5031249;28;20036;-82
2021/03/27 09:38:01;;;;;;;13.32;2.00;;;10.50;91.10;;;;;;5034738;28;20022;-83
2021/03/27 09:40:57;;;;;;;13.68;1.75;;;9.90;91.10;;;;;;5017204;28;20076;-83
2021/03/27 09:43:50;;;;;;;6.93;1.02;;;10.30;90.90;;;;;;5034150;28;20610;-83
2021/03/27 09:46:18;;;;;;;8.18;1.15;;;11.10;79.80;;;;;;5035441;28;20025;-83
2021/03/27 09:48:46;;;;;;;8.10;1.00;;;10.60;76.60;;;;;;5034174;28;20123;-83
2021/03/27 09:51:15;;;;;;;9.07;1.58;;;11.00;77.40;;;;;;5034179;28;20124;-83
2021/03/27 09:53:59;;;;;;;13.50;2.40;;;11.40;75.10;;;;;;5033987;28;20017;-83
2021/03/27 09:56:36;;;;;;;10.00;1.20;;;11.70;75.00;;;;;;5033879;28;20021;-83
2021/03/27 09:59:17;;;;;;;11.88;1.70;;;12.00;74.80;;;;;;5034039;28;20022;-83
2021/03/27 10:02:11;;;;;;;10.52;2.45;;;12.50;70.50;;;;;;5035293;28;20017;-83
2021/03/27 10:04:48;;;;;;;9.32;1.75;;;12.90;69.20;;;;;;5034879;28;20032;-83
2021/03/27 10:07:44;;;;;;;8.82;1.48;;;13.20;68.60;;;;;;5035213;28;20063;-83
2021/03/27 10:10:25;;;;;;;8.68;1.42;;;13.50;63.60;;;;;;5033753;28;20053;-83
2021/03/27 10:13:02;;;;;;;9.10;1.98;;;13.40;63.30;;;;;;5035040;28;20518;-83
2021/03/27 10:15:51;;;;;;;9.90;1.38;;;13.60;62.40;;;;;;5026093;28;20057;-83
2021/03/27 10:18:32;;;;;;;9.27;1.13;;;13.80;62.30;;;;;;5013992;28;20026;-83
2021/03/27 10:21:32;;;;;;;6.22;1.20;;;13.70;57.50;;;;;;5013698;28;20103;-83
2021/03/27 10:24:40;;;;;;;9.82;1.50;;;12.60;58.60;;;;;;5023341;28;20033;-83
2021/03/27 10:27:17;;;;;;;9.73;2.45;;;13.00;60.40;;;;;;4993085;28;20472;-83
2021/03/27 10:30:14;;;;;;;16.98;2.20;;;12.50;64.50;;;;;;5031609;28;20046;-83
2021/03/27 10:32:51;;;;;;;8.15;1.42;;;13.30;61.90;;;;;;5033299;28;20083;-82
2021/03/27 10:35:51;;;;;;;5.60;1.20;;;13.60;58.50;;;;;;5033175;28;20033;-83
2021/03/27 10:38:49;;;;;;;5.43;1.50;;;14.20;57.30;;;;;;5034663;28;20032;-83
2021/03/27 10:41:39;;;;;;;5.22;0.98;;;14.40;52.00;;;;;;5030938;28;20048;-83
2021/03/27 10:44:08;;;;;;;;;;;14.30;53.40;;;;;;5049519;28;20034;-83
2021/03/27 10:46:46;;;;;;;5.25;1.08;;;13.90;51.10;;;;;;5032551;28;19916;-83
2021/03/27 10:49:28;;;;;;;10.88;1.30;;;13.90;50.20;;;;;;5034297;28;20048;-82
2021/03/27 10:52:15;;;;;;;7.22;1.52;;;14.40;52.00;;;;;;5031178;28;20496;-81
2021/03/27 10:54:57;;;;;;;6.13;1.67;;;14.60;51.50;;;;;;5016874;28;20037;-81
2021/03/27 10:58:06;;;;;;;7.60;1.85;;;14.50;51.80;;;;;;5030294;28;20017;-81
2021/03/27 11:00:55;;;;;;;8.75;1.30;;;13.70;55.00;;;;;;5030529;28;20037;-81
2021/03/27 11:03:33;;;;;;;7.03;1.77;;;13.30;55.70;;;;;;5047984;28;20101;-81
2021/03/27 11:06:38;;;;;;;9.57;1.52;;;14.00;53.90;;;;;;5030294;28;20092;-82
2021/03/27 11:09:22;;;;;;;5.68;1.42;;;14.10;53.20;;;;;;5008056;28;20040;-81
2021/03/27 11:12:12;;;;;;;8.63;1.13;;;14.10;54.30;;;;;;5046620;28;20029;-83
2021/03/27 11:14:37;;;;;;;;;;;13.90;48.10;;;;;;5031167;28;20065;-80
2021/03/27 11:17:22;;;;;;;6.38;0.93;;;13.90;50.00;;;;;;5046462;28;19955;-81
2021/03/27 11:20:02;;;;;;;6.18;1.60;;;14.50;48.80;;;;;;5032668;28;20052;-81
2021/03/27 11:23:05;;;;;;;5.50;1.40;;;13.40;49.10;;;;;;5044542;28;20018;-81
2021/03/27 11:25:55;;;;;;;7.88;1.30;;;12.10;51.60;;;;;;5043036;28;20095;-81
2021/03/27 11:28:39;;;;;;;6.78;1.00;;;12.70;55.10;;;;;;5030758;28;20017;-81
2021/03/27 11:31:11;;;;;;;6.95;1.02;;;12.50;52.60;;;;;;5031563;28;20142;-81
2021/03/27 11:34:01;;;;;;;9.68;1.40;;;12.50;53.80;;;;;;5035471;28;20029;-82
2021/03/27 11:36:46;;;;;;;6.22;1.10;;;11.50;53.80;;;;;;5029059;28;20018;-81
2021/03/27 11:39:30;;;;;;;10.57;1.30;;;10.80;57.50;;;;;;5019000;28;20050;-81
2021/03/27 11:42:21;;;;;;;9.75;1.55;;;10.40;59.40;;;;;;5031682;28;20026;-81
2021/03/27 11:44:53;;;;;;;7.35;1.40;;;10.10;61.90;;;;;;5048059;28;20058;-82
2021/03/27 11:47:37;;;;;;;5.18;1.35;;;10.00;63.00;;;;;;5035480;28;20071;-82
2021/03/27 11:50:08;;;;;;;6.85;0.88;;;10.00;61.90;;;;;;5031100;28;20044;-82
2021/03/27 11:52:46;;;;;;;7.47;1.58;;;10.00;62.20;;;;;;5044118;28;20040;-82
2021/03/27 11:55:26;;;;;;;7.35;1.40;;;9.80;63.00;;;;;;5041731;28;20040;-82
2021/03/27 11:58:34;;;;;;;9.50;1.40;;;9.70;65.00;;;;;;5030839;28;20061;-83
2021/03/27 12:01:06;;;;;;;12.77;2.47;;;9.60;67.10;;;;;;4968348;28;20043;-82
2021/03/27 12:04:02;;;;;;;20.70;2.30;;;9.40;68.40;;;;;;4949937;28;20027;-81
2021/03/27 12:06:48;;;;;;;11.77;1.75;;;8.60;76.50;;;;;;5015141;28;20033;-82
2021/03/27 12:09:24;;;;;;;9.55;1.38;;;7.70;89.40;;;;;;5044647;28;20160;-81
2021/03/27 12:11:53;;;;;;;12.18;2.05;;;7.60;91.80;;;;;;5031015;28;20032;-82
2021/03/27 12:14:34;;;;;;;8.23;2.08;;;8.30;92.10;;;;;;5044984;28;20021;-83
2021/03/27 12:17:24;;;;;;;11.82;1.45;;;9.20;87.00;;;;;;5029152;28;20018;-81
2021/03/27 12:19:58;;;;;;;12.30;1.77;;;10.50;81.90;;;;;;5031371;28;20060;-82
2021/03/27 12:22:28;;;;;;;5.20;1.95;;;11.40;72.20;;;;;;5045505;28;20084;-82
2021/03/27 12:25:12;;;;;;;9.48;1.60;;;12.10;72.90;;;;;;5029897;28;20100;-82
2021/03/27 12:27:48;;;;;;;7.85;1.65;;;12.90;67.50;;;;;;5019974;28;20118;-83
2021/03/27 12:30:22;;;;;;;9.00;1.45;;;13.00;66.60;;;;;;5049019;28;20021;-83
2021/03/27 12:32:54;;;;;;;7.72;1.85;;;12.70;63.20;;;;;;5031436;28;20128;-82
2021/03/27 12:35:47;;;;;;;8.30;1.38;;;12.60;62.30;;;;;;5032754;28;20356;-82
2021/03/27 12:38:48;;;;;;;10.10;2.22;;;12.80;61.90;;;;;;5033767;28;20551;-82
2021/03/27 12:41:21;;;;;;;10.77;1.63;;;12.70;61.50;;;;;;5046600;28;20078;-82
2021/03/27 12:43:51;;;;;;;10.07;2.10;;;12.20;62.20;;;;;;5036056;28;20033;-83
2021/03/27 12:46:42;;;;;;;11.73;1.80;;;11.40;64.80;;;;;;5033729;28;20043;-83
2021/03/27 12:49:27;;;;;;;11.07;2.00;;;11.20;68.10;;;;;;5045590;28;20061;-84
2021/03/27 12:52:10;;;;;;;7.15;1.75;;;12.50;64.80;;;;;;5034964;28;20103;-84
2021/03/27 12:54:42;;;;;;;8.35;1.95;;;12.90;60.80;;;;;;5031063;28;20017;-83
2021/03/27 12:57:35;;;;;;;9.80;2.53;;;13.10;58.40;;;;;;5028806;28;20076;-84
2021/03/27 13:00:37;;;;;;;12.88;1.80;;;12.80;58.70;;;;;;5049993;28;20543;-83
2021/03/27 13:03:51;;;;;;;5.82;1.20;;;12.40;59.90;;;;;;5028103;28;20048;-83
2021/03/27 13:06:30;;;;;;;9.00;1.60;;;11.90;59.90;;;;;;5033617;28;20025;-84
2021/03/27 13:09:10;;;;;;;9.85;1.88;;;11.20;61.30;;;;;;5039006;28;20399;-82
2021/03/27 13:11:48;;;;;;;9.52;2.20;;;10.90;62.90;;;;;;5048770;28;20025;-83
2021/03/27 13:14:38;;;;;;;9.38;1.70;;;10.70;64.10;;;;;;5030521;28;20029;-83
2021/03/27 13:17:32;;;;;;;8.52;1.70;;;11.80;64.60;;;;;;5039308;28;20024;-83
2021/03/27 13:20:11;;;;;;;6.43;2.05;;;12.90;58.20;;;;;;5018741;28;20026;-83
2021/03/27 13:22:49;;;;;;;9.73;1.73;;;13.60;54.40;;;;;;5028528;28;20417;-83
2021/03/27 13:25:26;;;;;;;9.02;1.55;;;13.40;55.20;;;;;;5032136;28;20013;-82
2021/03/27 13:28:04;;;;;;;11.38;2.95;;;12.70;57.40;;;;;;5033141;28;20091;-83
2021/03/27 13:30:49;;;;;;;8.10;1.55;;;12.90;56.30;;;;;;5047527;28;20029;-82
2021/03/27 13:33:22;;;;;;;10.68;1.70;;;12.40;57.40;;;;;;5044856;28;20017;-84
2021/03/27 13:35:50;;;;;;;12.82;1.95;;;12.00;57.00;;;;;;5045688;28;20057;-82
2021/03/27 13:38:41;;;;;;;11.35;2.25;;;11.60;57.60;;;;;;5046292;28;20480;-83
2021/03/27 13:41:35;;;;;;;12.52;2.25;;;12.00;60.30;;;;;;5030823;28;20065;-83
2021/03/27 13:44:32;;;;;;;8.05;2.38;;;12.50;57.90;;;;;;5038110;28;20013;-82
2021/03/27 13:47:20;;;;;;;14.15;2.75;;;12.20;55.80;;;;;;5034429;28;20026;-84
2021/03/27 13:50:31;;;;;;;10.68;2.17;;;11.60;59.90;;;;;;5031189;28;20132;-83
2021/03/27 13:53:30;;;;;;;9.30;2.25;;;11.20;60.70;;;;;;5023745;28;20029;-82
2021/03/27 13:56:24;;;;;;;11.27;1.77;;;10.90;61.30;;;;;;5023652;28;20497;-82
2021/03/27 13:59:21;;;;;;;8.70;2.05;;;11.20;60.70;;;;;;5027026;28;20036;-83
2021/03/27 14:02:11;;;;;;;8.88;1.77;;;11.50;59.10;;;;;;5029644;28;20075;-83
2021/03/27 14:04:45;;;;;;;10.40;1.55;;;11.60;57.60;;;;;;5047922;28;20028;-83
2021/03/27 14:07:38;;;;;;;13.23;2.38;;;11.30;59.70;;;;;;5028781;28;20017;-83
2021/03/27 14:10:35;;;;;;;10.98;2.30;;;11.00;61.70;;;;;;5046405;28;20025;-83
2021/03/27 14:13:20;;;;;;;10.32;2.53;;;11.60;62.90;;;;;;5046438;28;20476;-83
2021/03/27 14:15:59;;;;;;;8.13;1.92;;;11.50;58.40;;;;;;5048465;28;20112;-82
2021/03/27 14:18:55;;;;;;;10.07;2.15;;;11.50;59.30;;;;;;5028017;28;20485;-83
2021/03/27 14:21:30;;;;;;;10.95;2.42;;;11.40;59.40;;;;;;5023922;28;20040;-83